createdAt,value
2019-02-16T00:00:18.401Z,5.40
2019-02-16T00:02:47.781Z,5.97
2019-02-16T00:05:17.151Z,5.60
2019-02-16T00:07:46.548Z,5.67
2019-02-16T00:10:15.910Z,5.47
2019-02-16T00:12:45.276Z,6.00
2019-02-16T00:15:14.715Z,5.90
2019-02-16T00:17:44.125Z,5.70
2019-02-16T00:20:13.496Z,6.10
2019-02-16T00:22:42.874Z,5.80
2019-02-16T00:25:12.213Z,5.80
2019-02-16T00:27:41.558Z,5.80
2019-02-16T00:30:10.941Z,5.77
2019-02-16T00:32:40.357Z,6.00
2019-02-16T00:35:09.683Z,5.97
2019-02-16T00:37:39.059Z,5.87
2019-02-16T00:40:08.588Z,5.73
2019-02-16T00:42:38.037Z,6.00
2019-02-16T00:45:07.400Z,5.30
2019-02-16T00:47:36.899Z,6.30
2019-02-16T00:50:06.292Z,6.00
2019-02-16T00:52:36.773Z,6.13
2019-02-16T00:55:06.194Z,5.70
2019-02-16T00:57:35.568Z,6.10
2019-02-16T01:00:05.642Z,6.23
2019-02-16T01:02:35.034Z,5.63
2019-02-16T01:05:04.580Z,6.10
2019-02-16T01:07:33.956Z,6.10
2019-02-16T01:10:04.587Z,6.43
2019-02-16T01:12:33.942Z,5.87
2019-02-16T01:15:03.410Z,5.80
2019-02-16T01:17:32.790Z,6.00
2019-02-16T01:20:02.226Z,6.13
2019-02-16T01:22:31.612Z,6.20
2019-02-16T01:25:00.983Z,6.23
2019-02-16T01:27:30.307Z,6.73
2019-02-16T01:29:59.524Z,6.83
2019-02-16T01:32:28.928Z,6.37
2019-02-16T01:34:58.307Z,5.53
2019-02-16T01:37:27.741Z,6.37
2019-02-16T01:39:57.146Z,6.30
2019-02-16T01:42:26.532Z,5.90
2019-02-16T01:44:55.971Z,5.97
2019-02-16T01:47:25.351Z,6.20
2019-02-16T01:49:54.728Z,5.97
2019-02-16T01:52:24.091Z,6.03
2019-02-16T01:54:53.419Z,6.27
2019-02-16T01:57:22.811Z,6.30
2019-02-16T01:59:53.818Z,6.50
2019-02-16T02:02:25.938Z,5.83
2019-02-16T02:04:55.274Z,5.90
2019-02-16T02:07:24.672Z,6.37
2019-02-16T02:09:54.063Z,6.77
2019-02-16T02:12:23.808Z,6.37
2019-02-16T02:14:53.189Z,5.93
2019-02-16T02:17:22.549Z,6.10
2019-02-16T02:19:51.976Z,6.03
2019-02-16T02:22:21.362Z,6.30
2019-02-16T02:24:50.791Z,6.30
2019-02-16T02:27:20.231Z,5.73
2019-02-16T02:29:49.647Z,6.03
2019-02-16T02:32:19.024Z,6.10
2019-02-16T02:34:48.446Z,5.87
2019-02-16T02:37:17.894Z,6.07
2019-02-16T02:39:47.291Z,6.07
2019-02-16T02:42:16.626Z,6.40
2019-02-16T02:44:45.983Z,5.93
2019-02-16T02:47:15.376Z,6.40
2019-02-16T02:49:44.807Z,6.00
2019-02-16T02:52:14.226Z,6.10
2019-02-16T02:54:43.629Z,6.60
2019-02-16T02:57:12.983Z,6.00
2019-02-16T02:59:45.378Z,6.10
2019-02-16T03:02:14.788Z,6.60
2019-02-16T03:04:44.307Z,6.10
2019-02-16T03:07:13.714Z,5.80
2019-02-16T03:09:43.072Z,6.00
2019-02-16T03:12:12.520Z,6.20
2019-02-16T03:14:41.950Z,6.37
2019-02-16T03:17:11.454Z,6.27
2019-02-16T03:19:40.852Z,6.13
2019-02-16T03:22:10.205Z,5.90
2019-02-16T03:24:39.771Z,5.33
2019-02-16T03:28:11.971Z,6.53
2019-02-16T03:31:11.903Z,5.90
2019-02-16T03:33:52.314Z,6.40
2019-02-16T03:37:01.399Z,6.30
2019-02-16T03:39:34.160Z,5.27
2019-02-16T03:42:03.549Z,5.70
2019-02-16T03:44:32.967Z,6.43
2019-02-16T03:47:02.386Z,5.87
2019-02-16T03:49:31.741Z,6.20
2019-02-16T03:52:01.146Z,6.40
2019-02-16T03:54:30.583Z,6.10
2019-02-16T03:57:00.012Z,6.80
2019-02-16T03:59:29.336Z,6.50
2019-02-16T04:01:58.776Z,6.30
2019-02-16T04:04:28.179Z,6.40
2019-02-16T04:06:57.613Z,6.67
2019-02-16T04:09:26.993Z,6.50
2019-02-16T04:11:56.339Z,6.50
2019-02-16T04:14:25.745Z,6.40
2019-02-16T04:16:55.151Z,6.80
2019-02-16T04:19:24.480Z,6.47
2019-02-16T04:21:53.760Z,6.80
2019-02-16T04:24:23.127Z,6.40
2019-02-16T04:26:52.473Z,6.10
2019-02-16T04:29:21.846Z,6.43
2019-02-16T04:31:51.245Z,6.80
2019-02-16T04:34:20.635Z,6.80
2019-02-16T04:36:49.977Z,6.27
2019-02-16T04:39:19.366Z,6.43
2019-02-16T04:41:48.755Z,6.40
2019-02-16T04:44:18.147Z,6.47
2019-02-16T04:46:47.508Z,7.10
2019-02-16T04:49:16.888Z,7.07
2019-02-16T04:51:46.310Z,6.63
2019-02-16T04:54:15.652Z,6.60
2019-02-16T04:56:45.088Z,6.97
2019-02-16T04:59:14.498Z,6.67
2019-02-16T05:01:43.852Z,7.17
2019-02-16T05:04:13.264Z,6.97
2019-02-16T05:06:42.650Z,7.23
2019-02-16T05:09:12.007Z,7.57
2019-02-16T05:11:41.327Z,7.13
2019-02-16T05:14:10.553Z,8.10
2019-02-16T05:16:39.940Z,7.33
2019-02-16T05:19:09.326Z,7.60
2019-02-16T05:21:38.706Z,7.37
2019-02-16T05:24:08.091Z,7.47
2019-02-16T05:26:37.392Z,7.63
2019-02-16T05:29:06.796Z,7.30
2019-02-16T05:31:36.144Z,7.33
2019-02-16T05:34:05.530Z,8.03
2019-02-16T05:36:34.956Z,7.27
2019-02-16T05:39:05.838Z,7.60
2019-02-16T05:41:35.219Z,7.00
2019-02-16T05:44:04.604Z,7.83
2019-02-16T05:46:33.963Z,8.50
2019-02-16T05:49:03.341Z,8.17
2019-02-16T05:51:32.720Z,7.90
2019-02-16T05:54:02.075Z,7.60
2019-02-16T05:56:31.376Z,7.87
2019-02-16T05:59:00.769Z,8.20
2019-02-16T06:01:30.099Z,7.90
2019-02-16T06:03:59.490Z,8.50
2019-02-16T06:06:28.889Z,7.73
2019-02-16T06:08:58.333Z,7.67
2019-02-16T06:11:27.768Z,7.90
2019-02-16T06:13:57.128Z,8.23
2019-02-16T06:16:26.490Z,8.10
2019-02-16T06:18:55.903Z,7.47
2019-02-16T06:21:25.300Z,8.13
2019-02-16T06:23:54.674Z,7.80
2019-02-16T06:26:23.981Z,7.97
2019-02-16T06:28:53.364Z,8.80
2019-02-16T06:31:22.785Z,7.50
2019-02-16T06:33:52.215Z,8.63
2019-02-16T06:36:31.276Z,8.20
2019-02-16T06:39:00.665Z,7.93
2019-02-16T06:41:30.049Z,8.47
2019-02-16T06:43:59.401Z,7.83
2019-02-16T06:46:28.793Z,8.00
2019-02-16T06:48:58.203Z,8.63
2019-02-16T06:51:27.583Z,8.03
2019-02-16T06:53:56.951Z,8.33
2019-02-16T06:56:30.489Z,8.30
2019-02-16T06:58:59.898Z,8.40
2019-02-16T07:01:29.283Z,8.30
2019-02-16T07:03:58.668Z,8.40
2019-02-16T07:06:28.084Z,8.60
2019-02-16T07:08:57.424Z,9.33
2019-02-16T07:11:26.826Z,8.80
2019-02-16T07:13:56.243Z,8.17
2019-02-16T07:16:36.399Z,8.33
2019-02-16T07:19:19.653Z,8.77
2019-02-16T07:21:49.016Z,8.87
2019-02-16T07:24:18.451Z,8.53
2019-02-16T07:26:47.841Z,8.93
2019-02-16T07:29:17.209Z,10.60
2019-02-16T07:31:46.624Z,10.10
2019-02-16T07:34:16.014Z,9.73
2019-02-16T07:36:45.390Z,8.80
2019-02-16T07:39:14.753Z,9.00
2019-02-16T07:41:44.135Z,8.07
2019-02-16T07:44:50.676Z,9.10
2019-02-16T07:47:45.162Z,8.63
2019-02-16T07:50:29.166Z,9.57
2019-02-16T07:53:14.248Z,9.27
2019-02-16T07:56:03.374Z,9.33
2019-02-16T07:59:03.659Z,9.07
2019-02-16T08:01:52.967Z,9.80
2019-02-16T08:04:53.332Z,9.30
2019-02-16T08:07:42.734Z,10.00
2019-02-16T08:10:20.855Z,9.93
2019-02-16T08:12:59.881Z,10.10
2019-02-16T08:15:38.615Z,9.77
2019-02-16T08:18:26.942Z,9.73
2019-02-16T08:21:19.686Z,10.23
2019-02-16T08:24:16.963Z,10.03
2019-02-16T08:27:11.364Z,9.70
2019-02-16T08:29:52.970Z,9.70
2019-02-16T08:32:31.391Z,10.33
2019-02-16T08:35:18.616Z,10.50
2019-02-16T08:38:05.526Z,11.00
2019-02-16T08:40:44.706Z,10.83
2019-02-16T08:43:38.982Z,11.10
2019-02-16T08:46:16.122Z,10.33
2019-02-16T08:49:19.840Z,10.53
2019-02-16T08:52:07.610Z,11.47
2019-02-16T08:54:54.505Z,11.00
2019-02-16T08:57:31.597Z,11.50
2019-02-16T09:00:35.415Z,11.17
2019-02-16T09:03:23.781Z,11.60
2019-02-16T09:06:10.758Z,11.17
2019-02-16T09:08:51.367Z,11.67
2019-02-16T09:11:43.022Z,11.03
2019-02-16T09:14:24.330Z,11.27
2019-02-16T09:17:21.796Z,11.50
2019-02-16T09:19:56.786Z,11.67
2019-02-16T09:22:31.925Z,11.20
2019-02-16T09:25:19.251Z,11.90
2019-02-16T09:28:07.672Z,11.37
2019-02-16T09:30:47.680Z,11.83
2019-02-16T09:33:35.004Z,11.63
2019-02-16T09:36:32.414Z,11.37
2019-02-16T09:39:25.401Z,11.43
2019-02-16T09:42:07.101Z,11.83
2019-02-16T09:47:44.283Z,12.40
2019-02-16T09:50:24.889Z,12.70
2019-02-16T09:53:16.308Z,11.93
2019-02-16T09:56:04.671Z,13.40
2019-02-16T09:58:42.485Z,13.77
2019-02-16T10:01:21.632Z,13.10
2019-02-16T10:04:06.458Z,12.80
2019-02-16T10:06:53.101Z,13.80
2019-02-16T10:09:31.984Z,17.67
2019-02-16T10:12:23.386Z,14.63
2019-02-16T10:15:10.512Z,14.93
2019-02-16T10:18:14.015Z,14.17
2019-02-16T10:21:33.957Z,19.97
2019-02-16T10:24:21.063Z,14.17
2019-02-16T10:27:09.703Z,13.77
2019-02-16T10:29:57.041Z,14.63
2019-02-16T10:32:48.513Z,14.60
2019-02-16T10:35:29.136Z,14.30
2019-02-16T10:38:12.537Z,15.17
2019-02-16T10:41:03.703Z,14.60
2019-02-16T10:43:52.047Z,14.50
2019-02-16T10:46:33.198Z,15.13
2019-02-16T10:49:15.232Z,14.90
2019-02-16T10:51:59.806Z,14.77
2019-02-16T10:55:00.430Z,14.47
2019-02-16T10:57:48.791Z,14.90
2019-02-16T11:00:55.370Z,14.70
2019-02-16T11:03:43.705Z,14.00
2019-02-16T11:06:30.668Z,16.07
2019-02-16T11:09:09.789Z,15.27
2019-02-16T11:11:45.578Z,14.80
2019-02-16T11:14:42.951Z,15.13
2019-02-16T11:17:29.279Z,14.67
2019-02-16T11:20:17.608Z,15.37
2019-02-16T11:22:53.851Z,15.20
2019-02-16T11:25:37.852Z,15.23
2019-02-16T11:28:24.978Z,15.73
2019-02-16T11:31:05.399Z,15.93
2019-02-16T11:33:52.565Z,15.13
2019-02-16T11:36:28.032Z,15.67
2019-02-16T11:39:22.191Z,15.57
2019-02-16T11:42:13.298Z,16.57
2019-02-16T11:45:01.660Z,15.27
2019-02-16T11:47:43.421Z,16.03
2019-02-16T11:50:20.621Z,16.77
2019-02-16T11:53:07.801Z,15.40
2019-02-16T11:55:59.007Z,15.57
2019-02-16T11:58:48.079Z,16.57
2019-02-16T12:01:54.140Z,16.00
2019-02-16T12:04:45.300Z,16.20
2019-02-16T12:07:32.259Z,15.47
2019-02-16T12:10:19.599Z,15.83
2019-02-16T12:13:10.782Z,15.70
2019-02-16T12:16:00.009Z,16.70
2019-02-16T12:18:37.596Z,16.03
2019-02-16T12:21:30.014Z,15.57
2019-02-16T12:24:18.319Z,15.20
2019-02-16T12:27:02.107Z,16.43
2019-02-16T12:29:41.041Z,15.33
2019-02-16T12:32:27.538Z,15.13
2019-02-16T12:35:05.749Z,14.87
2019-02-16T12:37:42.123Z,15.67
2019-02-16T12:40:19.285Z,15.83
2019-02-16T12:43:13.477Z,15.67
2019-02-16T12:46:00.546Z,16.07
2019-02-16T12:48:46.663Z,16.10
2019-02-16T12:51:37.699Z,15.23
2019-02-16T12:54:15.220Z,15.10
2019-02-16T12:57:05.142Z,15.63
2019-02-16T12:59:55.557Z,16.10
2019-02-16T13:02:42.750Z,15.47
2019-02-16T13:05:37.163Z,16.00
2019-02-16T13:08:17.262Z,15.87
2019-02-16T13:10:53.313Z,15.97
2019-02-16T13:13:41.636Z,14.47
2019-02-16T13:16:31.205Z,13.93
2019-02-16T13:19:18.819Z,15.97
2019-02-16T13:21:56.443Z,14.53
2019-02-16T13:24:32.371Z,14.30
2019-02-16T13:27:20.730Z,13.93
2019-02-16T13:30:09.673Z,14.23
2019-02-16T13:32:46.053Z,14.23
2019-02-16T13:35:27.636Z,14.30
2019-02-16T13:38:16.020Z,14.30
2019-02-16T13:40:54.103Z,14.43
2019-02-16T13:43:41.038Z,14.27
2019-02-16T13:46:38.536Z,14.90
2019-02-16T13:49:32.958Z,14.33
2019-02-16T13:52:21.337Z,14.00
2019-02-16T13:55:17.929Z,14.17
2019-02-16T13:58:09.302Z,13.90
2019-02-16T14:00:57.702Z,14.40
2019-02-16T14:03:36.426Z,15.07
2019-02-16T14:06:40.138Z,14.20
2019-02-16T14:09:16.329Z,14.50
2019-02-16T14:11:56.645Z,14.90
2019-02-16T14:14:47.703Z,14.10
2019-02-16T14:17:34.893Z,15.23
2019-02-16T14:20:04.428Z,14.73
2019-02-16T14:22:33.835Z,16.03
2019-02-16T14:25:04.967Z,15.17
2019-02-16T14:27:34.379Z,15.50
2019-02-16T14:30:03.806Z,15.17
2019-02-16T14:32:33.270Z,15.13
2019-02-16T14:35:02.652Z,15.37
2019-02-16T14:37:46.758Z,14.93
2019-02-16T14:40:16.096Z,15.13
2019-02-16T14:42:45.407Z,15.73
2019-02-16T14:45:15.053Z,14.33
2019-02-16T14:47:44.367Z,15.67
2019-02-16T14:50:13.726Z,14.40
2019-02-16T14:52:43.032Z,15.17
2019-02-16T14:55:13.483Z,14.90
2019-02-16T14:57:42.869Z,15.10
2019-02-16T15:00:12.347Z,14.60
2019-02-16T15:02:41.716Z,15.10
2019-02-16T15:05:11.090Z,15.60
2019-02-16T15:07:40.554Z,15.07
2019-02-16T15:10:10.477Z,15.07
2019-02-16T15:12:39.918Z,15.23
2019-02-16T15:15:09.336Z,15.10
2019-02-16T15:17:38.693Z,15.23
2019-02-16T15:20:09.626Z,15.37
2019-02-16T15:22:39.039Z,15.67
2019-02-16T15:25:10.654Z,15.60
2019-02-16T15:27:40.227Z,15.73
2019-02-16T15:30:14.225Z,15.40
2019-02-16T15:32:43.184Z,16.33
2019-02-16T15:35:12.729Z,16.13
2019-02-16T15:37:42.096Z,15.60
2019-02-16T15:43:07.280Z,17.57
2019-02-16T15:45:36.656Z,16.27
2019-02-16T15:48:06.108Z,15.10
2019-02-16T15:50:35.916Z,15.83
2019-02-16T15:53:05.373Z,15.97
2019-02-16T15:55:34.811Z,15.10
2019-02-16T15:58:04.212Z,15.97
2019-02-16T16:00:33.557Z,15.57
2019-02-16T16:03:02.937Z,20.00
2019-02-16T16:05:32.303Z,41.50
2019-02-16T16:08:35.992Z,21.47
2019-02-16T16:11:16.268Z,18.40
2019-02-16T16:14:11.048Z,18.20
2019-02-16T16:16:58.058Z,18.47
2019-02-16T16:19:37.212Z,16.37
2019-02-16T16:22:25.558Z,16.70
2019-02-16T16:25:20.048Z,16.40
2019-02-16T16:28:07.358Z,16.03
2019-02-16T16:31:01.812Z,16.53
2019-02-16T16:33:49.131Z,16.27
2019-02-16T16:36:36.222Z,24.47
2019-02-16T16:39:28.554Z,20.50
2019-02-16T16:42:19.725Z,18.37
2019-02-16T16:45:14.068Z,18.07
2019-02-16T16:48:02.418Z,17.33
2019-02-16T16:50:49.240Z,17.70
2019-02-16T16:53:52.630Z,17.53
2019-02-16T16:56:28.984Z,17.20
2019-02-16T16:59:28.958Z,16.20
2019-02-16T17:02:16.186Z,15.20
2019-02-16T17:05:04.556Z,15.87
2019-02-16T17:07:58.593Z,22.77
2019-02-16T17:10:48.084Z,22.67
2019-02-16T17:13:45.521Z,20.33
2019-02-16T17:16:32.774Z,20.60
2019-02-16T17:19:10.367Z,18.20
2019-02-16T17:21:54.343Z,17.27
2019-02-16T17:24:48.514Z,17.10
2019-02-16T17:27:55.073Z,16.03
2019-02-16T17:30:47.764Z,16.40
2019-02-16T17:33:54.500Z,16.13
2019-02-16T17:36:37.258Z,18.60
2019-02-16T17:39:13.862Z,15.93
2019-02-16T17:41:59.734Z,16.20
2019-02-16T17:44:39.444Z,16.03
2019-02-16T17:47:20.009Z,16.00
2019-02-16T17:50:13.945Z,18.40
2019-02-16T17:53:11.639Z,17.33
2019-02-16T17:55:56.824Z,18.63
2019-02-16T17:58:51.339Z,18.03
2019-02-16T18:01:39.694Z,16.83
2019-02-16T18:04:21.081Z,17.20
2019-02-16T18:07:08.446Z,17.63
2019-02-16T18:09:46.562Z,17.93
2019-02-16T18:12:44.217Z,18.70
2019-02-16T18:15:31.553Z,18.50
2019-02-16T18:18:18.970Z,18.40
2019-02-16T18:20:57.328Z,18.43
2019-02-16T18:23:38.215Z,17.73
2019-02-16T18:26:18.353Z,18.03
2019-02-16T18:29:05.248Z,16.93
2019-02-16T18:31:49.903Z,17.77
2019-02-16T18:34:44.317Z,17.27
2019-02-16T18:37:34.331Z,16.83
2019-02-16T18:40:25.834Z,16.63
2019-02-16T18:43:11.747Z,17.53
2019-02-16T18:45:54.939Z,17.17
2019-02-16T18:48:52.387Z,16.33
2019-02-16T18:51:59.244Z,20.73
2019-02-16T18:54:56.801Z,21.40
2019-02-16T18:57:43.750Z,22.53
2019-02-16T19:00:21.816Z,26.73
2019-02-16T19:03:08.999Z,26.43
2019-02-16T19:05:54.922Z,25.27
2019-02-16T19:08:49.022Z,25.60
2019-02-16T19:11:26.977Z,28.57
2019-02-16T19:14:13.831Z,27.87
2019-02-16T19:17:03.182Z,48.27
2019-02-16T19:19:43.218Z,26.33
2019-02-16T19:22:37.405Z,25.10
2019-02-16T19:25:19.013Z,25.07
2019-02-16T19:27:58.801Z,26.23
2019-02-16T19:30:47.355Z,23.00
2019-02-16T19:33:38.863Z,20.07
2019-02-16T19:36:13.731Z,21.07
2019-02-16T19:38:53.642Z,21.93
2019-02-16T19:41:44.837Z,20.40
2019-02-16T19:44:29.508Z,20.03
2019-02-16T19:47:16.635Z,19.60
2019-02-16T19:50:03.674Z,18.90
2019-02-16T19:52:50.768Z,18.73
2019-02-16T19:55:35.724Z,18.90
2019-02-16T19:58:18.086Z,17.37
2019-02-16T20:01:04.151Z,18.87
2019-02-16T20:03:44.151Z,19.10
2019-02-16T20:06:50.596Z,19.53
2019-02-16T20:09:51.000Z,18.43
2019-02-16T20:12:42.629Z,18.97
2019-02-16T20:15:49.575Z,19.43
2019-02-16T20:18:43.969Z,19.50
2019-02-16T20:21:52.193Z,19.20
2019-02-16T20:24:59.945Z,19.67
2019-02-16T20:27:39.145Z,19.63
2019-02-16T20:30:30.551Z,20.63
2019-02-16T20:33:06.227Z,19.80
2019-02-16T20:35:58.567Z,20.57
2019-02-16T20:38:45.571Z,18.57
2019-02-16T20:41:19.952Z,17.97
2019-02-16T20:44:11.214Z,18.50
2019-02-16T20:47:05.556Z,17.87
2019-02-16T20:50:08.923Z,21.10
2019-02-16T20:53:03.263Z,31.87
2019-02-16T20:55:53.821Z,33.77
2019-02-16T20:58:39.593Z,37.03
2019-02-16T21:01:34.024Z,33.80
2019-02-16T21:04:28.205Z,34.03
2019-02-16T21:10:29.319Z,20.00
2019-02-16T21:13:02.655Z,20.97
2019-02-16T21:15:42.474Z,20.83
2019-02-16T21:18:30.840Z,20.50
2019-02-16T21:21:31.242Z,20.07
2019-02-16T21:24:27.965Z,21.23
2019-02-16T21:27:09.592Z,20.27
2019-02-16T21:29:50.194Z,20.73
2019-02-16T21:32:32.880Z,19.97
2019-02-16T21:35:35.170Z,19.90
2019-02-16T21:38:29.373Z,18.93
2019-02-16T21:41:26.813Z,19.57
2019-02-16T21:44:13.959Z,20.63
2019-02-16T21:46:59.587Z,20.00
2019-02-16T21:49:56.885Z,22.80
2019-02-16T21:52:35.133Z,21.43
2019-02-16T21:55:09.978Z,22.40
2019-02-16T21:57:52.593Z,22.73
2019-02-16T22:00:40.918Z,21.70
2019-02-16T22:03:27.892Z,20.73
2019-02-16T22:06:15.086Z,21.50
2019-02-16T22:09:12.596Z,21.77
2019-02-16T22:11:52.443Z,20.73
2019-02-16T22:14:21.843Z,23.40
2019-02-16T22:16:51.292Z,27.63
2019-02-16T22:19:20.656Z,25.50
2019-02-16T22:21:50.061Z,25.07
2019-02-16T22:24:19.499Z,23.03
2019-02-16T22:26:48.899Z,25.00
2019-02-16T22:29:18.334Z,22.57
2019-02-16T22:31:47.742Z,22.33
2019-02-16T22:34:17.129Z,21.30
2019-02-16T22:36:46.507Z,22.90
2019-02-16T22:39:15.918Z,23.03
2019-02-16T22:41:45.504Z,21.70
2019-02-16T22:44:14.897Z,23.47
2019-02-16T22:46:44.304Z,24.30
2019-02-16T22:49:13.699Z,23.17
2019-02-16T22:51:43.052Z,23.23
2019-02-16T22:54:12.371Z,25.77
2019-02-16T22:56:41.678Z,26.53
2019-02-16T22:59:11.134Z,25.33
2019-02-16T23:01:40.908Z,24.33
2019-02-16T23:04:10.282Z,23.10
2019-02-16T23:06:39.703Z,24.53
2019-02-16T23:09:20.987Z,23.53
2019-02-16T23:11:50.404Z,23.43
2019-02-16T23:14:19.780Z,23.90
2019-02-16T23:16:49.132Z,23.47
2019-02-16T23:19:18.506Z,22.70
2019-02-16T23:21:47.789Z,23.67
2019-02-16T23:24:17.167Z,21.67
2019-02-16T23:26:46.618Z,23.00
2019-02-16T23:29:16.007Z,22.50
2019-02-16T23:31:45.421Z,21.87
2019-02-16T23:34:14.857Z,22.50
2019-02-16T23:36:44.201Z,21.83
2019-02-16T23:39:13.868Z,22.43
2019-02-16T23:41:43.248Z,22.13
2019-02-16T23:44:12.642Z,22.27
2019-02-16T23:46:41.956Z,22.57
2019-02-16T23:49:11.357Z,23.47
2019-02-16T23:51:40.774Z,21.97
2019-02-16T23:54:10.178Z,21.37
2019-02-16T23:56:39.590Z,22.40
2019-02-16T23:59:08.942Z,21.30
